Terminal Aerodrome Forecast
Issued by NWS Wilmington, OH

Current Version | Previous Version | Graphics & Text | Print | Product List | Glossary On
Versions: 1 2 3 4 5 6 7 8 9 10 11 12 13 14 15 16 17 18 19 20 21
000
FTUS41 KILN 161400 AAA
TAFILN
TAF AMD
KILN 161401Z 1614/1712 01008KT P6SM OVC015
     FM161900 02007KT P6SM BKN025
     FM162100 VRB03KT P6SM SCT035
     FM170000 VRB02KT P6SM SKC
     FM170600 00000KT 4SM BR SKC
     FM170700 00000KT 1/2SM FG VV001=

USA.gov is the U.S. government's official web portal to all federal, state and local government web resources and services.